Aspen, Colorado
Current Conditions -  °F | °C
As of 8:53 PM on Friday 31 Oct 2014 (Local Time) from KASE Reporting Station
Clear Clear  
Wind Chill: 40°   Ceiling: Unl
Heat Index: 44°   Visibility: 10mi
Dew Point: 22°   Wind: 8mph
Humidity: 42%   Direction: 210°SSW
Pressure: 30.18"   Gusts: NA
Location:  39.19°N, 106.81°W
Report Text: KASE 010253Z 21007KT 10SM CLR 07/M06 A3018 RMK AO2 SLP171 T00671056 50005
Loading
Personal Weather Stations






























Interactive Weather Map
Tropical Storm Tracking
New forecast layout! Learn more

10-Day Weather Forecast

Advertisements
Track Severe Weather on mobile